sensor_id;sensor_type;location;lat;lon;timestamp;pressure;altitude;pressure_sealevel;temperature;humidity
82305;BME280;71914;47.382;8.168;2023-09-19T00:00:00;96763.00;;;16.12;77.79
82305;BME280;71914;47.382;8.168;2023-09-19T00:02:26;96775.19;;;16.13;78.15
82305;BME280;71914;47.382;8.168;2023-09-19T00:04:53;96781.63;;;16.18;78.00
82305;BME280;71914;47.382;8.168;2023-09-19T00:07:19;96778.31;;;16.16;78.48
82305;BME280;71914;47.382;8.168;2023-09-19T00:09:46;96780.19;;;16.07;79.06
82305;BME280;71914;47.382;8.168;2023-09-19T00:12:12;96778.00;;;16.11;77.80
82305;BME280;71914;47.382;8.168;2023-09-19T00:14:38;96781.34;;;16.05;78.29
82305;BME280;71914;47.382;8.168;2023-09-19T00:17:04;96773.06;;;16.08;78.61
82305;BME280;71914;47.382;8.168;2023-09-19T00:19:33;96772.41;;;16.06;79.08
82305;BME280;71914;47.382;8.168;2023-09-19T00:22:00;96777.38;;;16.09;79.15
82305;BME280;71914;47.382;8.168;2023-09-19T00:24:26;96783.78;;;16.15;79.13
82305;BME280;71914;47.382;8.168;2023-09-19T00:26:53;96779.66;;;16.12;79.00
82305;BME280;71914;47.382;8.168;2023-09-19T00:29:19;96783.47;;;16.09;79.07
82305;BME280;71914;47.382;8.168;2023-09-19T00:31:45;96782.16;;;16.05;79.44
82305;BME280;71914;47.382;8.168;2023-09-19T00:34:11;96790.28;;;16.04;79.51
82305;BME280;71914;47.382;8.168;2023-09-19T00:36:36;96788.63;;;16.03;79.30
82305;BME280;71914;47.382;8.168;2023-09-19T00:39:05;96785.78;;;16.04;79.17
82305;BME280;71914;47.382;8.168;2023-09-19T00:41:31;96790.91;;;16.06;79.98
82305;BME280;71914;47.382;8.168;2023-09-19T00:43:56;96782.16;;;16.05;79.00
82305;BME280;71914;47.382;8.168;2023-09-19T00:46:22;96791.09;;;16.04;78.91
82305;BME280;71914;47.382;8.168;2023-09-19T00:48:48;96788.13;;;16.07;79.58
82305;BME280;71914;47.382;8.168;2023-09-19T00:51:15;96780.81;;;16.09;78.94
82305;BME280;71914;47.382;8.168;2023-09-19T00:53:45;96790.91;;;16.06;78.65
82305;BME280;71914;47.382;8.168;2023-09-19T00:56:13;96787.09;;;16.08;79.11
82305;BME280;71914;47.382;8.168;2023-09-19T00:58:39;96791.94;;;16.05;77.97
82305;BME280;71914;47.382;8.168;2023-09-19T01:01:05;96791.09;;;16.04;78.62
82305;BME280;71914;47.382;8.168;2023-09-19T01:03:32;96800.53;;;15.99;77.96
82305;BME280;71914;47.382;8.168;2023-09-19T01:05:59;96793.75;;;15.96;78.04
82305;BME280;71914;47.382;8.168;2023-09-19T01:08:26;96806.63;;;15.99;78.62
82305;BME280;71914;47.382;8.168;2023-09-19T01:10:59;96807.78;;;15.97;77.92
82305;BME280;71914;47.382;8.168;2023-09-19T01:13:30;96799.22;;;15.95;78.33
82305;BME280;71914;47.382;8.168;2023-09-19T01:16:02;96803.81;;;16.01;77.95
82305;BME280;71914;47.382;8.168;2023-09-19T01:18:40;96794.56;;;15.97;77.75
82305;BME280;71914;47.382;8.168;2023-09-19T01:21:14;96802.50;;;15.97;77.70
82305;BME280;71914;47.382;8.168;2023-09-19T01:27:06;96796.41;;;15.96;77.47
82305;BME280;71914;47.382;8.168;2023-09-19T01:29:42;96807.31;;;15.93;78.25
82305;BME280;71914;47.382;8.168;2023-09-19T01:32:14;96804.69;;;15.93;77.06
82305;BME280;71914;47.382;8.168;2023-09-19T01:34:45;96794.59;;;15.88;77.66
82305;BME280;71914;47.382;8.168;2023-09-19T01:37:12;96796.09;;;15.91;77.35
82305;BME280;71914;47.382;8.168;2023-09-19T01:39:38;96796.25;;;15.89;77.16
82305;BME280;71914;47.382;8.168;2023-09-19T01:42:11;96796.44;;;15.88;77.38
82305;BME280;71914;47.382;8.168;2023-09-19T01:44:48;96793.94;;;15.86;77.55
82305;BME280;71914;47.382;8.168;2023-09-19T01:47:23;96803.50;;;15.87;77.01
82305;BME280;71914;47.382;8.168;2023-09-19T01:49:55;96805.34;;;15.87;77.31
82305;BME280;71914;47.382;8.168;2023-09-19T01:52:28;96802.03;;;15.85;78.17
82305;BME280;71914;47.382;8.168;2023-09-19T01:54:57;96818.91;;;15.84;77.87
82305;BME280;71914;47.382;8.168;2023-09-19T01:57:28;96822.00;;;15.87;78.29
82305;BME280;71914;47.382;8.168;2023-09-19T01:59:59;96814.59;;;15.83;78.27
82305;BME280;71914;47.382;8.168;2023-09-19T02:02:27;96818.56;;;15.87;78.93
82305;BME280;71914;47.382;8.168;2023-09-19T02:04:55;96816.91;;;15.86;78.05
82305;BME280;71914;47.382;8.168;2023-09-19T02:07:20;96821.84;;;15.89;78.00
82305;BME280;71914;47.382;8.168;2023-09-19T02:09:46;96824.66;;;15.87;78.45
82305;BME280;71914;47.382;8.168;2023-09-19T02:12:13;96824.00;;;15.85;77.66
82305;BME280;71914;47.382;8.168;2023-09-19T02:14:40;96819.53;;;15.86;78.02
82305;BME280;71914;47.382;8.168;2023-09-19T02:17:06;96825.00;;;15.84;77.87
82305;BME280;71914;47.382;8.168;2023-09-19T02:19:34;96823.34;;;15.83;77.65
82305;BME280;71914;47.382;8.168;2023-09-19T02:21:59;96814.88;;;15.80;76.85
82305;BME280;71914;47.382;8.168;2023-09-19T02:24:25;96815.22;;;15.76;77.27
82305;BME280;71914;47.382;8.168;2023-09-19T02:26:52;96813.59;;;15.75;77.01
82305;BME280;71914;47.382;8.168;2023-09-19T02:29:17;96815.06;;;15.78;77.11
82305;BME280;71914;47.382;8.168;2023-09-19T02:31:43;96808.66;;;15.81;76.30
82305;BME280;71914;47.382;8.168;2023-09-19T02:34:09;96813.75;;;15.82;76.18
82305;BME280;71914;47.382;8.168;2023-09-19T02:36:36;96815.72;;;15.80;76.15
82305;BME280;71914;47.382;8.168;2023-09-19T02:39:02;96827.63;;;15.84;76.10
82305;BME280;71914;47.382;8.168;2023-09-19T02:41:27;96827.63;;;15.84;76.11
82305;BME280;71914;47.382;8.168;2023-09-19T02:43:54;96827.47;;;15.86;76.01
82305;BME280;71914;47.382;8.168;2023-09-19T02:46:21;96831.91;;;15.93;75.16
82305;BME280;71914;47.382;8.168;2023-09-19T02:48:46;96831.25;;;15.91;75.52
82305;BME280;71914;47.382;8.168;2023-09-19T02:51:12;96826.81;;;15.92;75.52
82305;BME280;71914;47.382;8.168;2023-09-19T02:53:40;96820.69;;;16.00;75.10
82305;BME280;71914;47.382;8.168;2023-09-19T02:56:07;96818.19;;;15.98;75.32
82305;BME280;71914;47.382;8.168;2023-09-19T02:58:35;96826.63;;;15.93;75.33
82305;BME280;71914;47.382;8.168;2023-09-19T03:01:08;96831.09;;;15.93;75.83
82305;BME280;71914;47.382;8.168;2023-09-19T03:03:33;96822.31;;;16.01;75.46
82305;BME280;71914;47.382;8.168;2023-09-19T03:05:59;96823.97;;;16.02;76.07
82305;BME280;71914;47.382;8.168;2023-09-19T03:08:24;96824.44;;;16.05;76.22
82305;BME280;71914;47.382;8.168;2023-09-19T03:10:51;96821.63;;;16.07;75.27
82305;BME280;71914;47.382;8.168;2023-09-19T03:13:17;96827.44;;;16.02;75.64
82305;BME280;71914;47.382;8.168;2023-09-19T03:15:43;96826.09;;;16.06;75.91
82305;BME280;71914;47.382;8.168;2023-09-19T03:18:15;96828.25;;;16.03;75.76
82305;BME280;71914;47.382;8.168;2023-09-19T03:20:41;96830.91;;;16.03;76.55
82305;BME280;71914;47.382;8.168;2023-09-19T03:23:06;96825.44;;;16.04;76.43
82305;BME280;71914;47.382;8.168;2023-09-19T03:25:34;96825.13;;;16.07;76.98
82305;BME280;71914;47.382;8.168;2023-09-19T03:28:01;96820.81;;;16.06;76.50
82305;BME280;71914;47.382;8.168;2023-09-19T03:30:31;96824.13;;;16.00;75.50
82305;BME280;71914;47.382;8.168;2023-09-19T03:32:56;96833.88;;;16.00;75.29
82305;BME280;71914;47.382;8.168;2023-09-19T03:35:22;96820.84;;;15.90;75.39
82305;BME280;71914;47.382;8.168;2023-09-19T03:37:47;96823.16;;;15.85;75.71
82305;BME280;71914;47.382;8.168;2023-09-19T03:40:13;96818.22;;;15.82;76.06
82305;BME280;71914;47.382;8.168;2023-09-19T03:42:40;96819.53;;;15.86;76.16
82305;BME280;71914;47.382;8.168;2023-09-19T03:45:08;96828.09;;;15.80;76.06
82305;BME280;71914;47.382;8.168;2023-09-19T03:47:38;96834.72;;;15.75;75.88
82305;BME280;71914;47.382;8.168;2023-09-19T03:50:04;96832.25;;;15.66;76.45
82305;BME280;71914;47.382;8.168;2023-09-19T03:52:30;96829.78;;;15.64;77.82
82305;BME280;71914;47.382;8.168;2023-09-19T03:54:56;96832.44;;;15.64;76.73
82305;BME280;71914;47.382;8.168;2023-09-19T03:57:21;96841.00;;;15.66;77.00
82305;BME280;71914;47.382;8.168;2023-09-19T03:59:47;96821.53;;;15.67;77.43
82305;BME280;71914;47.382;8.168;2023-09-19T04:02:14;96821.19;;;15.62;76.86
82305;BME280;71914;47.382;8.168;2023-09-19T04:04:47;96813.13;;;15.55;77.53
82305;BME280;71914;47.382;8.168;2023-09-19T04:07:13;96815.59;;;15.57;78.36
82305;BME280;71914;47.382;8.168;2023-09-19T04:09:38;96818.88;;;15.51;77.89
82305;BME280;71914;47.382;8.168;2023-09-19T04:12:05;96820.06;;;15.56;77.04
82305;BME280;71914;47.382;8.168;2023-09-19T04:14:30;96825.66;;;15.53;76.94
82305;BME280;71914;47.382;8.168;2023-09-19T04:16:56;96824.31;;;15.57;76.96
82305;BME280;71914;47.382;8.168;2023-09-19T04:19:23;96820.22;;;15.55;79.00
82305;BME280;71914;47.382;8.168;2023-09-19T04:21:48;96824.31;;;15.57;77.21
82305;BME280;71914;47.382;8.168;2023-09-19T04:24:14;96823.00;;;15.53;77.28
82305;BME280;71914;47.382;8.168;2023-09-19T04:26:39;96834.72;;;15.51;77.49
82305;BME280;71914;47.382;8.168;2023-09-19T04:29:05;96834.59;;;15.52;77.61
82305;BME280;71914;47.382;8.168;2023-09-19T04:31:31;96841.16;;;15.65;78.10
82305;BME280;71914;47.382;8.168;2023-09-19T04:33:57;96840.19;;;15.66;77.41
82305;BME280;71914;47.382;8.168;2023-09-19T04:36:28;96851.06;;;15.71;76.56
82305;BME280;71914;47.382;8.168;2023-09-19T04:38:54;96856.84;;;15.66;76.96
82305;BME280;71914;47.382;8.168;2023-09-19T04:41:19;96847.78;;;15.60;77.72
82305;BME280;71914;47.382;8.168;2023-09-19T04:43:45;96857.34;;;15.53;77.70
82305;BME280;71914;47.382;8.168;2023-09-19T04:46:10;96863.63;;;15.52;77.62
82305;BME280;71914;47.382;8.168;2023-09-19T04:48:39;96862.97;;;15.50;78.66
82305;BME280;71914;47.382;8.168;2023-09-19T04:51:05;96868.91;;;15.52;77.72
82305;BME280;71914;47.382;8.168;2023-09-19T04:53:32;96874.00;;;15.46;78.64
82305;BME280;71914;47.382;8.168;2023-09-19T04:55:58;96878.13;;;15.48;78.53
82305;BME280;71914;47.382;8.168;2023-09-19T04:58:23;96870.38;;;15.47;78.07
82305;BME280;71914;47.382;8.168;2023-09-19T05:00:49;96882.59;;;15.48;78.20
82305;BME280;71914;47.382;8.168;2023-09-19T05:03:17;96887.06;;;15.47;77.94
82305;BME280;71914;47.382;8.168;2023-09-19T05:05:42;96887.22;;;15.46;77.86
82305;BME280;71914;47.382;8.168;2023-09-19T05:08:08;96887.38;;;15.44;78.21
82305;BME280;71914;47.382;8.168;2023-09-19T05:10:36;96888.69;;;15.40;78.33
82305;BME280;71914;47.382;8.168;2023-09-19T05:13:04;96886.06;;;15.48;79.58
82305;BME280;71914;47.382;8.168;2023-09-19T05:15:30;96889.53;;;15.49;79.04
82305;BME280;71914;47.382;8.168;2023-09-19T05:17:56;96888.38;;;15.51;78.58
82305;BME280;71914;47.382;8.168;2023-09-19T05:20:22;96885.06;;;15.57;78.45
82305;BME280;71914;47.382;8.168;2023-09-19T05:23:00;96895.16;;;15.54;78.70
82305;BME280;71914;47.382;8.168;2023-09-19T05:25:27;96901.94;;;15.56;79.02
82305;BME280;71914;47.382;8.168;2023-09-19T05:27:56;96909.69;;;15.66;79.14
82305;BME280;71914;47.382;8.168;2023-09-19T05:30:23;96901.91;;;15.73;78.92
82305;BME280;71914;47.382;8.168;2023-09-19T05:32:48;96914.16;;;15.82;79.18
82305;BME280;71914;47.382;8.168;2023-09-19T05:35:14;96906.88;;;15.92;78.54
82305;BME280;71914;47.382;8.168;2023-09-19T05:37:39;96918.31;;;15.93;77.90
82305;BME280;71914;47.382;8.168;2023-09-19T05:40:06;96919.63;;;15.97;78.59
82305;BME280;71914;47.382;8.168;2023-09-19T05:42:37;96914.66;;;16.02;78.45
82305;BME280;71914;47.382;8.168;2023-09-19T05:45:07;96911.19;;;16.02;77.85
82305;BME280;71914;47.382;8.168;2023-09-19T05:47:33;96917.63;;;15.99;77.20
82305;BME280;71914;47.382;8.168;2023-09-19T05:49:58;96921.09;;;16.00;78.24
82305;BME280;71914;47.382;8.168;2023-09-19T05:52:24;96923.56;;;16.01;78.14
82305;BME280;71914;47.382;8.168;2023-09-19T05:54:50;96924.88;;;16.05;78.47
82305;BME280;71914;47.382;8.168;2023-09-19T05:57:16;96925.03;;;16.12;77.87
82305;BME280;71914;47.382;8.168;2023-09-19T05:59:41;96925.38;;;16.09;76.84
82305;BME280;71914;47.382;8.168;2023-09-19T06:02:09;96920.41;;;16.06;77.78
82305;BME280;71914;47.382;8.168;2023-09-19T06:04:36;96913.50;;;16.05;77.91
82305;BME280;71914;47.382;8.168;2023-09-19T06:07:04;96915.81;;;16.00;76.87
82305;BME280;71914;47.382;8.168;2023-09-19T06:09:31;96923.88;;;15.98;76.75
82305;BME280;71914;47.382;8.168;2023-09-19T06:11:57;96924.91;;;15.97;77.75
82305;BME280;71914;47.382;8.168;2023-09-19T06:14:23;96921.91;;;16.00;77.45
82305;BME280;71914;47.382;8.168;2023-09-19T06:16:50;96929.19;;;16.06;77.10
82305;BME280;71914;47.382;8.168;2023-09-19T06:19:17;96935.63;;;16.04;77.40
82305;BME280;71914;47.382;8.168;2023-09-19T06:21:42;96935.47;;;16.05;76.51
82305;BME280;71914;47.382;8.168;2023-09-19T06:24:09;96939.75;;;16.06;77.42
82305;BME280;71914;47.382;8.168;2023-09-19T06:26:34;96943.56;;;16.04;77.27
82305;BME280;71914;47.382;8.168;2023-09-19T06:29:00;96939.94;;;16.05;77.05
82305;BME280;71914;47.382;8.168;2023-09-19T06:31:25;96945.03;;;16.06;77.09
82305;BME280;71914;47.382;8.168;2023-09-19T06:33:54;96935.78;;;16.10;77.75
82305;BME280;71914;47.382;8.168;2023-09-19T06:36:21;96940.09;;;16.12;76.67
82305;BME280;71914;47.382;8.168;2023-09-19T06:38:47;96948.66;;;16.14;77.35
82305;BME280;71914;47.382;8.168;2023-09-19T06:41:13;96943.38;;;16.22;77.63
82305;BME280;71914;47.382;8.168;2023-09-19T06:43:41;96940.41;;;16.25;77.39
82305;BME280;71914;47.382;8.168;2023-09-19T06:46:06;96945.69;;;16.25;76.40
82305;BME280;71914;47.382;8.168;2023-09-19T06:48:32;96950.81;;;16.18;76.96
82305;BME280;71914;47.382;8.168;2023-09-19T06:50:58;96950.28;;;16.23;77.73
82305;BME280;71914;47.382;8.168;2023-09-19T06:53:29;96946.50;;;16.25;77.75
82305;BME280;71914;47.382;8.168;2023-09-19T06:55:57;96940.25;;;16.18;76.78
82305;BME280;71914;47.382;8.168;2023-09-19T06:58:22;96955.25;;;16.18;77.22
82305;BME280;71914;47.382;8.168;2023-09-19T07:00:48;96956.75;;;16.29;77.95
82305;BME280;71914;47.382;8.168;2023-09-19T07:03:15;96957.25;;;16.24;77.00
82305;BME280;71914;47.382;8.168;2023-09-19T07:05:44;96953.13;;;16.21;77.04
82305;BME280;71914;47.382;8.168;2023-09-19T07:08:13;96956.41;;;16.32;78.09
82305;BME280;71914;47.382;8.168;2023-09-19T07:10:40;96954.25;;;16.35;76.58
82305;BME280;71914;47.382;8.168;2023-09-19T07:13:08;96957.91;;;16.34;76.94
82305;BME280;71914;47.382;8.168;2023-09-19T07:15:36;96959.22;;;16.30;77.46
82305;BME280;71914;47.382;8.168;2023-09-19T07:18:05;96972.28;;;16.32;77.06
82305;BME280;71914;47.382;8.168;2023-09-19T07:20:31;96973.44;;;16.29;77.08
82305;BME280;71914;47.382;8.168;2023-09-19T07:22:57;96964.50;;;16.30;76.98
82305;BME280;71914;47.382;8.168;2023-09-19T07:25:25;96962.50;;;16.32;77.72
82305;BME280;71914;47.382;8.168;2023-09-19T07:27:52;96963.69;;;16.38;76.80
82305;BME280;71914;47.382;8.168;2023-09-19T07:30:17;96972.25;;;16.48;77.15
82305;BME280;71914;47.382;8.168;2023-09-19T07:32:43;96970.06;;;16.52;77.24
82305;BME280;71914;47.382;8.168;2023-09-19T07:35:08;96972.88;;;16.58;75.43
82305;BME280;71914;47.382;8.168;2023-09-19T07:37:34;96971.56;;;16.63;76.22
82305;BME280;71914;47.382;8.168;2023-09-19T07:40:01;96976.50;;;16.66;75.79
82305;BME280;71914;47.382;8.168;2023-09-19T07:42:28;96987.59;;;16.69;75.44
82305;BME280;71914;47.382;8.168;2023-09-19T07:44:55;96992.03;;;16.69;75.81
82305;BME280;71914;47.382;8.168;2023-09-19T07:47:20;96994.50;;;16.70;75.39
82305;BME280;71914;47.382;8.168;2023-09-19T07:49:47;96986.91;;;16.67;75.18
82305;BME280;71914;47.382;8.168;2023-09-19T07:52:13;96995.84;;;16.66;75.42
82305;BME280;71914;47.382;8.168;2023-09-19T07:54:39;96999.16;;;16.68;75.93
82305;BME280;71914;47.382;8.168;2023-09-19T07:57:06;96998.84;;;16.63;75.42
82305;BME280;71914;47.382;8.168;2023-09-19T07:59:32;97002.25;;;16.80;75.90
82305;BME280;71914;47.382;8.168;2023-09-19T08:01:59;97007.69;;;16.95;77.18
82305;BME280;71914;47.382;8.168;2023-09-19T08:04:26;97009.19;;;16.98;75.82
82305;BME280;71914;47.382;8.168;2023-09-19T08:06:51;97007.44;;;17.21;76.07
82305;BME280;71914;47.382;8.168;2023-09-19T08:09:17;97009.13;;;17.14;76.45
82305;BME280;71914;47.382;8.168;2023-09-19T08:11:46;97006.03;;;17.02;75.71
82305;BME280;71914;47.382;8.168;2023-09-19T08:14:12;96998.78;;;16.88;75.31
82305;BME280;71914;47.382;8.168;2023-09-19T08:16:39;97005.72;;;16.81;76.92
82305;BME280;71914;47.382;8.168;2023-09-19T08:19:06;97006.56;;;16.81;77.95
82305;BME280;71914;47.382;8.168;2023-09-19T08:21:32;97011.84;;;16.73;75.98
82305;BME280;71914;47.382;8.168;2023-09-19T08:23:57;97007.94;;;16.60;75.57
82305;BME280;71914;47.382;8.168;2023-09-19T08:26:23;97009.44;;;16.55;76.07
82305;BME280;71914;47.382;8.168;2023-09-19T08:28:49;97017.69;;;16.68;76.02
82305;BME280;71914;47.382;8.168;2023-09-19T08:31:16;97010.91;;;16.66;76.91
82305;BME280;71914;47.382;8.168;2023-09-19T08:33:42;97014.19;;;16.68;75.77
82305;BME280;71914;47.382;8.168;2023-09-19T08:36:11;97018.97;;;16.72;75.38
82305;BME280;71914;47.382;8.168;2023-09-19T08:38:39;97014.03;;;16.69;76.11
82305;BME280;71914;47.382;8.168;2023-09-19T08:41:06;97017.66;;;16.93;76.03
82305;BME280;71914;47.382;8.168;2023-09-19T08:43:32;97024.09;;;16.90;75.47
82305;BME280;71914;47.382;8.168;2023-09-19T08:46:08;97022.56;;;17.04;75.25
82305;BME280;71914;47.382;8.168;2023-09-19T08:48:39;97024.53;;;17.11;73.99
82305;BME280;71914;47.382;8.168;2023-09-19T08:51:07;97017.56;;;17.09;75.03
82305;BME280;71914;47.382;8.168;2023-09-19T08:53:41;97029.78;;;17.27;73.88
82305;BME280;71914;47.382;8.168;2023-09-19T08:56:10;97029.97;;;17.49;74.15
82305;BME280;71914;47.382;8.168;2023-09-19T08:58:44;97027.63;;;17.54;73.25
82305;BME280;71914;47.382;8.168;2023-09-19T09:01:14;97031.81;;;17.48;71.97
82305;BME280;71914;47.382;8.168;2023-09-19T09:03:42;97021.28;;;17.32;72.00
82305;BME280;71914;47.382;8.168;2023-09-19T09:06:14;97019.50;;;17.24;72.70
82305;BME280;71914;47.382;8.168;2023-09-19T09:08:41;97018.31;;;17.35;72.23
82305;BME280;71914;47.382;8.168;2023-09-19T09:11:08;97022.22;;;17.47;72.18
82305;BME280;71914;47.382;8.168;2023-09-19T09:13:35;97020.22;;;17.49;71.75
82305;BME280;71914;47.382;8.168;2023-09-19T09:16:02;97024.63;;;17.57;71.33
82305;BME280;71914;47.382;8.168;2023-09-19T09:18:28;97028.38;;;17.71;72.30
82305;BME280;71914;47.382;8.168;2023-09-19T09:20:55;97028.13;;;17.81;70.07
82305;BME280;71914;47.382;8.168;2023-09-19T09:23:21;97020.31;;;17.87;70.97
82305;BME280;71914;47.382;8.168;2023-09-19T09:25:50;97021.28;;;17.95;68.93
82305;BME280;71914;47.382;8.168;2023-09-19T09:28:20;97024.91;;;18.02;70.83
82305;BME280;71914;47.382;8.168;2023-09-19T09:30:46;97025.88;;;18.01;68.82
82305;BME280;71914;47.382;8.168;2023-09-19T09:33:13;97031.00;;;18.02;68.70
82305;BME280;71914;47.382;8.168;2023-09-19T09:35:47;97019.41;;;18.03;68.42
82305;BME280;71914;47.382;8.168;2023-09-19T09:38:17;97024.66;;;18.12;68.81
82305;BME280;71914;47.382;8.168;2023-09-19T09:40:49;97021.28;;;18.18;68.08
82305;BME280;71914;47.382;8.168;2023-09-19T09:43:26;97020.22;;;18.27;68.52
82305;BME280;71914;47.382;8.168;2023-09-19T09:46:12;97019.63;;;18.40;67.97
82305;BME280;71914;47.382;8.168;2023-09-19T09:49:02;97018.88;;;18.46;68.20
82305;BME280;71914;47.382;8.168;2023-09-19T09:52:01;97024.03;;;18.48;66.92
82305;BME280;71914;47.382;8.168;2023-09-19T09:54:33;97010.38;;;18.51;65.88
82305;BME280;71914;47.382;8.168;2023-09-19T09:57:04;97018.81;;;18.54;67.79
82305;BME280;71914;47.382;8.168;2023-09-19T09:59:49;97015.31;;;18.54;66.39
82305;BME280;71914;47.382;8.168;2023-09-19T10:02:16;97010.97;;;18.61;65.85
82305;BME280;71914;47.382;8.168;2023-09-19T10:04:49;97008.13;;;18.63;65.23
82305;BME280;71914;47.382;8.168;2023-09-19T10:07:28;97018.09;;;18.75;65.82
82305;BME280;71914;47.382;8.168;2023-09-19T10:09:59;97018.19;;;18.82;66.74
82305;BME280;71914;47.382;8.168;2023-09-19T10:12:32;97014.47;;;18.91;65.27
82305;BME280;71914;47.382;8.168;2023-09-19T10:15:04;97003.75;;;19.00;64.69
82305;BME280;71914;47.382;8.168;2023-09-19T10:17:34;97009.25;;;18.98;63.07
82305;BME280;71914;47.382;8.168;2023-09-19T10:20:00;97009.81;;;19.08;65.15
82305;BME280;71914;47.382;8.168;2023-09-19T10:22:35;97019.50;;;19.16;63.96
82305;BME280;71914;47.382;8.168;2023-09-19T10:25:04;97006.41;;;19.15;63.56
82305;BME280;71914;47.382;8.168;2023-09-19T10:27:34;97001.84;;;19.08;63.53
82305;BME280;71914;47.382;8.168;2023-09-19T10:30:05;97004.75;;;19.14;63.70
82305;BME280;71914;47.382;8.168;2023-09-19T10:32:34;96997.41;;;19.31;65.02
82305;BME280;71914;47.382;8.168;2023-09-19T10:35:01;96998.88;;;19.33;62.26
82305;BME280;71914;47.382;8.168;2023-09-19T10:37:29;96992.53;;;19.34;62.31
82305;BME280;71914;47.382;8.168;2023-09-19T10:39:58;96997.97;;;19.26;62.33
82305;BME280;71914;47.382;8.168;2023-09-19T10:42:25;96997.88;;;19.19;62.28
82305;BME280;71914;47.382;8.168;2023-09-19T10:44:57;97008.31;;;19.21;62.79
82305;BME280;71914;47.382;8.168;2023-09-19T10:47:25;97000.34;;;19.21;63.00
82305;BME280;71914;47.382;8.168;2023-09-19T10:49:51;96999.63;;;19.27;65.03
82305;BME280;71914;47.382;8.168;2023-09-19T10:52:20;97001.47;;;19.27;61.97
82305;BME280;71914;47.382;8.168;2023-09-19T10:54:50;97002.66;;;19.24;61.54
82305;BME280;71914;47.382;8.168;2023-09-19T10:57:19;97001.34;;;19.20;61.56
82305;BME280;71914;47.382;8.168;2023-09-19T11:00:02;96994.03;;;19.22;62.14
82305;BME280;71914;47.382;8.168;2023-09-19T11:03:16;96999.69;;;19.34;62.53
82305;BME280;71914;47.382;8.168;2023-09-19T11:06:00;97001.56;;;19.55;62.97
82305;BME280;71914;47.382;8.168;2023-09-19T11:08:29;96996.44;;;19.90;61.92
82305;BME280;71914;47.382;8.168;2023-09-19T11:10:54;96986.22;;;20.15;62.12
82305;BME280;71914;47.382;8.168;2023-09-19T11:13:26;96992.53;;;20.36;61.43
82305;BME280;71914;47.382;8.168;2023-09-19T11:16:19;96983.88;;;20.27;59.74
82305;BME280;71914;47.382;8.168;2023-09-19T11:18:51;96981.31;;;20.12;59.15
82305;BME280;71914;47.382;8.168;2023-09-19T11:21:52;96978.06;;;20.17;60.72
82305;BME280;71914;47.382;8.168;2023-09-19T11:24:32;96981.69;;;20.37;58.29
82305;BME280;71914;47.382;8.168;2023-09-19T11:27:14;96974.78;;;20.43;59.52
82305;BME280;71914;47.382;8.168;2023-09-19T11:29:43;96982.84;;;20.56;59.88
82305;BME280;71914;47.382;8.168;2023-09-19T11:32:10;96975.94;;;20.62;58.24
82305;BME280;71914;47.382;8.168;2023-09-19T11:34:43;96978.84;;;20.67;58.00
82305;BME280;71914;47.382;8.168;2023-09-19T11:40:32;96969.69;;;20.70;58.97
82305;BME280;71914;47.382;8.168;2023-09-19T11:42:57;96966.59;;;20.73;57.85
82305;BME280;71914;47.382;8.168;2023-09-19T11:46:05;96959.25;;;20.75;57.63
82305;BME280;71914;47.382;8.168;2023-09-19T11:48:32;96960.94;;;20.83;55.83
82305;BME280;71914;47.382;8.168;2023-09-19T11:50:58;96960.13;;;20.89;56.18
82305;BME280;71914;47.382;8.168;2023-09-19T11:53:31;96967.38;;;21.02;54.90
82305;BME280;71914;47.382;8.168;2023-09-19T11:55:58;96969.22;;;21.01;54.02
82305;BME280;71914;47.382;8.168;2023-09-19T11:58:26;96962.78;;;20.82;53.03
82305;BME280;71914;47.382;8.168;2023-09-19T12:00:54;96955.91;;;20.66;53.17
82305;BME280;71914;47.382;8.168;2023-09-19T12:03:29;96955.00;;;20.59;55.36
82305;BME280;71914;47.382;8.168;2023-09-19T12:05:57;96948.31;;;20.63;54.67
82305;BME280;71914;47.382;8.168;2023-09-19T12:08:24;96947.09;;;20.66;55.82
82305;BME280;71914;47.382;8.168;2023-09-19T12:10:50;96936.75;;;20.78;55.74
82305;BME280;71914;47.382;8.168;2023-09-19T12:13:16;96940.88;;;20.87;56.33
82305;BME280;71914;47.382;8.168;2023-09-19T12:15:43;96942.19;;;21.04;55.32
82305;BME280;71914;47.382;8.168;2023-09-19T12:18:10;96934.44;;;21.16;52.41
82305;BME280;71914;47.382;8.168;2023-09-19T12:20:50;96939.78;;;21.23;53.24
82305;BME280;71914;47.382;8.168;2023-09-19T12:23:18;96930.16;;;21.29;53.96
82305;BME280;71914;47.382;8.168;2023-09-19T12:25:45;96930.41;;;21.40;54.34
82305;BME280;71914;47.382;8.168;2023-09-19T12:28:13;96929.16;;;21.36;53.29
82305;BME280;71914;47.382;8.168;2023-09-19T12:30:38;96933.06;;;21.34;54.38
82305;BME280;71914;47.382;8.168;2023-09-19T12:33:15;96924.03;;;21.35;53.91
82305;BME280;71914;47.382;8.168;2023-09-19T12:35:41;96917.72;;;21.49;54.54
82305;BME280;71914;47.382;8.168;2023-09-19T12:38:08;96916.09;;;21.55;52.60
82305;BME280;71914;47.382;8.168;2023-09-19T12:40:36;96915.53;;;21.66;54.05
82305;BME280;71914;47.382;8.168;2023-09-19T12:43:04;96903.84;;;21.61;51.98
82305;BME280;71914;47.382;8.168;2023-09-19T12:45:30;96905.44;;;21.55;53.23
82305;BME280;71914;47.382;8.168;2023-09-19T12:48:18;96906.41;;;21.40;54.31
82305;BME280;71914;47.382;8.168;2023-09-19T12:51:04;96900.28;;;21.53;54.67
82305;BME280;71914;47.382;8.168;2023-09-19T12:53:32;96899.09;;;21.69;54.57
82305;BME280;71914;47.382;8.168;2023-09-19T12:56:00;96902.81;;;21.82;53.24
82305;BME280;71914;47.382;8.168;2023-09-19T12:58:26;96891.13;;;21.89;52.54
82305;BME280;71914;47.382;8.168;2023-09-19T13:00:52;96893.38;;;21.86;51.94
82305;BME280;71914;47.382;8.168;2023-09-19T13:03:24;96897.06;;;21.98;52.39
82305;BME280;71914;47.382;8.168;2023-09-19T13:05:51;96886.41;;;22.12;53.28
82305;BME280;71914;47.382;8.168;2023-09-19T13:08:18;96884.97;;;22.02;50.83
82305;BME280;71914;47.382;8.168;2023-09-19T13:13:40;96875.31;;;22.15;50.11
82305;BME280;71914;47.382;8.168;2023-09-19T13:16:07;96872.03;;;22.26;49.58